createdAt,value
2023-01-12T00:01:54.681Z,6.40
2023-01-12T00:04:21.525Z,6.40
2023-01-12T00:06:48.634Z,6.50
2023-01-12T00:09:15.412Z,6.50
2023-01-12T00:11:42.185Z,6.50
2023-01-12T00:14:09.956Z,6.60
2023-01-12T00:16:37.956Z,6.60
2023-01-12T00:19:16.937Z,6.50
2023-01-12T00:22:04.027Z,6.60
2023-01-12T00:24:52.440Z,6.60
2023-01-12T00:27:21.720Z,6.60
2023-01-12T00:29:49.791Z,6.60
2023-01-12T00:32:19.835Z,6.60
2023-01-12T00:34:46.706Z,6.60
2023-01-12T00:37:14.082Z,6.60
2023-01-12T00:39:45.867Z,6.60
2023-01-12T00:42:34.712Z,6.60
2023-01-12T00:45:20.157Z,6.60
2023-01-12T00:47:46.902Z,6.50
2023-01-12T00:50:14.805Z,6.60
2023-01-12T00:52:41.559Z,6.50
2023-01-12T00:55:08.709Z,6.60
2023-01-12T00:57:35.839Z,6.60
2023-01-12T01:00:02.591Z,6.50
2023-01-12T01:02:29.680Z,6.60
2023-01-12T01:04:56.869Z,6.60
2023-01-12T01:07:24.204Z,6.60
2023-01-12T01:09:51.260Z,6.60
2023-01-12T01:12:18.079Z,6.60
2023-01-12T01:14:46.108Z,6.60
2023-01-12T01:17:12.930Z,6.60
2023-01-12T01:19:39.621Z,6.50
2023-01-12T01:22:06.357Z,6.60
2023-01-12T01:24:33.051Z,6.60
2023-01-12T01:26:59.766Z,6.60
2023-01-12T01:29:26.529Z,6.60
2023-01-12T01:31:55.347Z,6.60
2023-01-12T01:34:23.705Z,6.60
2023-01-12T01:36:50.445Z,6.60
2023-01-12T01:39:17.158Z,6.60
2023-01-12T01:41:44.017Z,6.50
2023-01-12T01:44:29.309Z,6.50
2023-01-12T01:47:17.168Z,6.50
2023-01-12T01:49:51.219Z,6.50
2023-01-12T01:52:34.646Z,6.50
2023-01-12T01:55:33.969Z,6.50
2023-01-12T01:58:09.849Z,6.50
2023-01-12T02:00:40.225Z,6.50
2023-01-12T02:03:11.024Z,6.50
2023-01-12T02:05:43.815Z,6.40
2023-01-12T02:08:32.026Z,6.40
2023-01-12T02:11:01.905Z,6.40
2023-01-12T02:13:49.757Z,6.40
2023-01-12T02:16:25.356Z,6.40
2023-01-12T02:19:23.597Z,6.40
2023-01-12T02:22:23.331Z,6.40
2023-01-12T02:25:33.471Z,6.40
2023-01-12T02:28:58.157Z,6.30
2023-01-12T02:31:58.555Z,6.30
2023-01-12T02:35:21.940Z,6.30
2023-01-12T02:38:22.108Z,6.30
2023-01-12T02:41:44.971Z,6.30
2023-01-12T02:44:30.017Z,6.30
2023-01-12T02:47:01.392Z,6.30
2023-01-12T02:49:36.146Z,6.20
2023-01-12T02:52:12.451Z,6.20
2023-01-12T02:54:44.459Z,6.10
2023-01-12T02:57:11.239Z,6.10
2023-01-12T02:59:43.165Z,6.00
2023-01-12T03:02:21.101Z,6.00
2023-01-12T03:04:48.114Z,6.00
2023-01-12T03:07:14.896Z,6.00
2023-01-12T03:09:51.684Z,6.00
2023-01-12T03:12:26.364Z,6.00
2023-01-12T03:14:55.874Z,6.00
2023-01-12T03:17:30.995Z,6.00
2023-01-12T03:20:06.754Z,5.90
2023-01-12T03:22:37.116Z,5.90
2023-01-12T03:25:10.976Z,5.90
2023-01-12T03:27:44.579Z,5.80
2023-01-12T03:30:27.586Z,5.80
2023-01-12T03:32:54.745Z,5.80
2023-01-12T03:35:27.954Z,5.70
2023-01-12T03:38:07.462Z,5.70
2023-01-12T03:40:41.662Z,5.70
2023-01-12T03:43:45.864Z,5.70
2023-01-12T03:46:25.690Z,5.70
2023-01-12T03:49:07.332Z,5.60
2023-01-12T03:51:39.734Z,5.60
2023-01-12T03:54:11.325Z,5.60
2023-01-12T03:56:42.193Z,5.60
2023-01-12T03:59:09.614Z,5.50
2023-01-12T04:01:37.360Z,5.50
2023-01-12T04:04:04.490Z,5.40
2023-01-12T04:06:31.224Z,5.40
2023-01-12T04:08:57.931Z,5.40
2023-01-12T04:11:43.211Z,5.30
2023-01-12T04:14:09.938Z,5.30
2023-01-12T04:16:36.681Z,5.30
2023-01-12T04:19:03.444Z,5.20
2023-01-12T04:21:48.807Z,5.20
2023-01-12T04:24:15.533Z,5.20
2023-01-12T04:26:42.299Z,5.20
2023-01-12T04:29:08.996Z,5.20
2023-01-12T04:31:35.777Z,5.20
2023-01-12T04:34:02.515Z,5.10
2023-01-12T04:36:29.325Z,5.10
2023-01-12T04:38:56.199Z,5.10
2023-01-12T04:41:22.952Z,5.10
2023-01-12T04:43:49.646Z,5.10
2023-01-12T04:46:16.400Z,5.10
2023-01-12T04:48:44.169Z,5.10
2023-01-12T04:51:11.199Z,5.00
2023-01-12T04:53:40.414Z,5.00
2023-01-12T04:56:08.186Z,5.00
2023-01-12T04:58:35.753Z,4.90
2023-01-12T05:01:10.961Z,4.90
2023-01-12T05:03:38.357Z,4.80
2023-01-12T05:06:06.149Z,4.80
2023-01-12T05:08:51.662Z,4.80
2023-01-12T05:11:18.726Z,4.80
2023-01-12T05:13:45.455Z,4.90
2023-01-12T05:16:15.614Z,4.90
2023-01-12T05:18:44.915Z,4.90
2023-01-12T05:21:17.703Z,5.00
2023-01-12T05:23:45.888Z,5.00
2023-01-12T05:26:12.896Z,5.00
2023-01-12T05:28:39.671Z,5.00
2023-01-12T05:31:13.244Z,5.00
2023-01-12T05:33:42.921Z,5.00
2023-01-12T05:36:15.692Z,5.10
2023-01-12T05:38:42.671Z,5.10
2023-01-12T05:41:11.733Z,5.10
2023-01-12T05:43:50.824Z,5.10
2023-01-12T05:46:24.584Z,5.10
2023-01-12T05:48:54.583Z,5.10
2023-01-12T05:51:22.824Z,5.20
2023-01-12T05:53:49.567Z,5.20
2023-01-12T05:56:28.306Z,5.20
2023-01-12T05:58:59.131Z,5.20
2023-01-12T06:01:27.706Z,5.20
2023-01-12T06:03:58.846Z,5.20
2023-01-12T06:06:30.684Z,5.20
2023-01-12T06:08:59.118Z,5.20
2023-01-12T06:11:44.394Z,5.30
2023-01-12T06:14:11.260Z,5.30
2023-01-12T06:16:42.564Z,5.30
2023-01-12T06:19:12.788Z,5.30
2023-01-12T06:21:40.528Z,5.30
2023-01-12T06:24:07.997Z,5.30
2023-01-12T06:26:34.872Z,5.20
2023-01-12T06:29:03.390Z,5.20
2023-01-12T06:31:30.722Z,5.20
2023-01-12T06:33:57.816Z,5.20
2023-01-12T06:36:24.570Z,5.20
2023-01-12T06:38:51.288Z,5.20
2023-01-12T06:41:50.188Z,5.20
2023-01-12T06:44:16.949Z,5.20
2023-01-12T06:46:43.670Z,5.10
2023-01-12T06:49:10.684Z,5.10
2023-01-12T06:51:37.526Z,5.10
2023-01-12T06:54:04.284Z,5.10
2023-01-12T06:56:31.192Z,5.10
2023-01-12T06:58:58.055Z,5.10
2023-01-12T07:01:26.985Z,5.10
2023-01-12T07:03:54.256Z,5.20
2023-01-12T07:06:21.261Z,5.20
2023-01-12T07:08:47.987Z,5.20
2023-01-12T07:11:16.671Z,5.30
2023-01-12T07:13:43.405Z,5.30
2023-01-12T07:16:10.277Z,5.30
2023-01-12T07:18:37.270Z,5.30
2023-01-12T07:21:07.906Z,5.40
2023-01-12T07:23:35.407Z,5.40
2023-01-12T07:26:02.124Z,5.40
2023-01-12T07:28:31.149Z,5.40
2023-01-12T07:31:03.605Z,5.40
2023-01-12T07:33:31.028Z,5.40
2023-01-12T07:35:59.752Z,5.50
2023-01-12T07:38:28.457Z,5.50
2023-01-12T07:40:58.243Z,5.50
2023-01-12T07:43:25.371Z,5.50
2023-01-12T07:45:52.173Z,5.50
2023-01-12T07:48:21.085Z,5.50
2023-01-12T07:50:47.793Z,5.50
2023-01-12T07:53:14.488Z,5.60
2023-01-12T07:55:43.606Z,5.20
2023-01-12T07:58:10.613Z,5.60
2023-01-12T08:00:37.570Z,5.60
2023-01-12T08:03:09.603Z,5.60
2023-01-12T08:05:38.575Z,5.60
2023-01-12T08:08:06.367Z,5.70
2023-01-12T08:10:33.130Z,5.80
2023-01-12T08:12:59.881Z,5.80
2023-01-12T08:15:32.122Z,5.90
2023-01-12T08:18:09.967Z,6.20
2023-01-12T08:20:38.112Z,6.60
2023-01-12T08:23:19.125Z,7.30
2023-01-12T08:25:56.117Z,8.30
2023-01-12T08:28:36.767Z,8.50
2023-01-12T08:31:04.784Z,8.20
2023-01-12T08:33:31.585Z,7.60
2023-01-12T08:35:58.812Z,7.30
2023-01-12T08:38:25.605Z,6.90
2023-01-12T08:41:10.935Z,6.70
2023-01-12T08:43:56.428Z,6.60
2023-01-12T08:46:23.175Z,6.60
2023-01-12T08:48:49.871Z,6.60
2023-01-12T08:51:16.596Z,6.60
2023-01-12T08:53:43.300Z,6.60
2023-01-12T08:56:10.144Z,6.60
2023-01-12T08:58:36.884Z,6.70
2023-01-12T09:01:12.605Z,6.80
2023-01-12T09:03:40.616Z,6.80
2023-01-12T09:06:23.648Z,6.90
2023-01-12T09:08:59.152Z,6.90
2023-01-12T09:11:28.775Z,7.00
2023-01-12T09:13:56.239Z,7.00
2023-01-12T09:16:23.137Z,7.00
2023-01-12T09:18:49.902Z,7.00
2023-01-12T09:21:23.020Z,6.90
2023-01-12T09:23:50.673Z,6.90
2023-01-12T09:26:21.296Z,6.90
2023-01-12T09:28:48.554Z,6.50
2023-01-12T09:31:19.729Z,6.80
2023-01-12T09:33:47.143Z,6.80
2023-01-12T09:36:17.586Z,6.90
2023-01-12T09:38:46.118Z,6.90
2023-01-12T09:41:43.632Z,6.90
2023-01-12T09:44:50.679Z,7.00
2023-01-12T09:47:40.128Z,7.00
2023-01-12T09:50:19.605Z,7.00
2023-01-12T09:53:00.331Z,7.00
2023-01-12T09:56:02.967Z,7.10
2023-01-12T09:59:18.622Z,7.10
2023-01-12T10:01:46.091Z,7.20
2023-01-12T10:04:13.656Z,7.20
2023-01-12T10:06:41.317Z,7.20
2023-01-12T10:09:19.491Z,7.10
2023-01-12T10:12:14.366Z,7.10
2023-01-12T10:15:16.730Z,7.10
2023-01-12T10:18:01.831Z,7.00
2023-01-12T10:20:44.111Z,7.00
2023-01-12T10:23:19.243Z,6.90
2023-01-12T10:25:59.535Z,6.90
2023-01-12T10:28:35.762Z,6.90
2023-01-12T10:31:03.925Z,6.90
2023-01-12T10:33:34.581Z,6.90
2023-01-12T10:36:19.536Z,6.90
2023-01-12T10:38:52.152Z,7.00
2023-01-12T10:41:26.221Z,7.00
2023-01-12T10:43:58.964Z,7.00
2023-01-12T10:46:29.671Z,7.10
2023-01-12T10:49:16.696Z,7.10
2023-01-12T10:52:00.442Z,7.10
2023-01-12T10:54:34.183Z,7.20
2023-01-12T10:57:08.403Z,7.20
2023-01-12T10:59:39.760Z,7.20
2023-01-12T11:02:09.352Z,7.20
2023-01-12T11:04:49.616Z,7.20
2023-01-12T11:07:29.280Z,7.20
2023-01-12T11:10:38.608Z,7.20
2023-01-12T11:13:06.142Z,7.30
2023-01-12T11:15:38.766Z,7.30
2023-01-12T11:18:48.468Z,7.40
2023-01-12T11:21:22.797Z,7.40
2023-01-12T11:24:10.561Z,7.50
2023-01-12T11:27:18.463Z,7.60
2023-01-12T11:30:20.797Z,7.60
2023-01-12T11:32:59.918Z,7.60
2023-01-12T11:35:51.396Z,7.70
2023-01-12T11:38:41.066Z,7.70
2023-01-12T11:41:23.312Z,7.70
2023-01-12T11:43:58.970Z,7.80
2023-01-12T11:46:47.170Z,7.90
2023-01-12T11:49:42.106Z,7.90
2023-01-12T11:52:12.145Z,7.90
2023-01-12T11:54:40.625Z,7.90
2023-01-12T11:57:25.541Z,7.90
2023-01-12T12:00:25.686Z,8.00
2023-01-12T12:03:40.054Z,8.00
2023-01-12T12:06:39.044Z,8.00
2023-01-12T12:09:42.451Z,8.10
2023-01-12T12:12:44.280Z,8.10
2023-01-12T12:15:55.926Z,8.10
2023-01-12T12:18:47.709Z,8.20
2023-01-12T12:21:41.473Z,8.20
2023-01-12T12:24:34.827Z,8.20
2023-01-12T12:27:56.619Z,8.30
2023-01-12T12:30:49.643Z,8.30
2023-01-12T12:33:37.566Z,8.40
2023-01-12T12:36:31.790Z,8.40
2023-01-12T12:39:28.856Z,8.40
2023-01-12T12:42:48.949Z,8.50
2023-01-12T12:45:51.081Z,8.50
2023-01-12T12:48:49.767Z,8.60
2023-01-12T12:51:17.248Z,8.50
2023-01-12T12:53:49.688Z,8.60
2023-01-12T12:56:24.691Z,8.60
2023-01-12T12:58:56.299Z,8.60
2023-01-12T13:01:27.134Z,8.60
2023-01-12T13:04:03.373Z,8.60
2023-01-12T13:06:38.530Z,8.60
2023-01-12T13:09:17.052Z,8.60
2023-01-12T13:12:00.298Z,8.70
2023-01-12T13:14:33.051Z,8.70
2023-01-12T13:17:02.008Z,8.70
2023-01-12T13:19:41.068Z,8.80
2023-01-12T13:22:35.040Z,8.80
2023-01-12T13:25:22.982Z,8.90
2023-01-12T13:27:56.600Z,8.90
2023-01-12T13:30:40.719Z,8.90
2023-01-12T13:33:28.122Z,8.90
2023-01-12T13:36:08.084Z,9.00
2023-01-12T13:38:52.711Z,9.00
2023-01-12T13:42:08.957Z,9.10
2023-01-12T13:44:42.059Z,9.10
2023-01-12T13:47:25.249Z,9.20
2023-01-12T13:49:58.752Z,9.20
2023-01-12T13:52:32.137Z,9.20
2023-01-12T13:54:59.663Z,9.20
2023-01-12T13:57:30.293Z,9.20
2023-01-12T14:00:09.207Z,9.20
2023-01-12T14:02:41.046Z,9.10
2023-01-12T14:05:52.882Z,9.10
2023-01-12T14:08:52.468Z,9.10
2023-01-12T14:12:04.848Z,9.00
2023-01-12T14:15:33.043Z,9.00
2023-01-12T14:18:07.610Z,9.00
2023-01-12T14:20:46.600Z,9.00
2023-01-12T14:23:26.523Z,9.00
2023-01-12T14:26:16.496Z,9.10
2023-01-12T14:28:46.903Z,9.10
2023-01-12T14:31:26.258Z,9.20
2023-01-12T14:33:58.067Z,9.20
2023-01-12T14:36:31.582Z,9.20
2023-01-12T14:38:59.978Z,9.20
2023-01-12T14:41:48.974Z,9.20
2023-01-12T14:44:44.753Z,9.20
2023-01-12T14:47:28.172Z,9.20
2023-01-12T14:49:55.465Z,9.20
2023-01-12T14:52:33.288Z,9.20
2023-01-12T14:55:25.197Z,9.20
2023-01-12T14:58:00.189Z,9.20
2023-01-12T15:00:31.869Z,9.20
2023-01-12T15:03:01.488Z,9.30
2023-01-12T15:05:31.360Z,9.30
2023-01-12T15:08:07.992Z,9.30
2023-01-12T15:10:43.287Z,9.30
2023-01-12T15:13:36.503Z,9.30
2023-01-12T15:16:24.153Z,9.30
2023-01-12T15:19:09.421Z,9.30
2023-01-12T15:21:57.158Z,9.30
2023-01-12T15:24:45.569Z,9.30
2023-01-12T15:27:21.428Z,9.30
2023-01-12T15:29:48.464Z,9.30
2023-01-12T15:32:41.446Z,9.30
2023-01-12T15:35:23.495Z,9.30
2023-01-12T15:37:53.963Z,9.30
2023-01-12T15:40:22.150Z,9.20
2023-01-12T15:42:52.934Z,9.20
2023-01-12T15:45:40.108Z,9.20
2023-01-12T15:48:07.460Z,9.20
2023-01-12T15:50:40.653Z,9.20
2023-01-12T15:53:22.477Z,9.20
2023-01-12T15:55:49.551Z,9.10
2023-01-12T15:58:16.948Z,9.10
2023-01-12T16:00:45.089Z,9.10
2023-01-12T16:03:28.944Z,9.10
2023-01-12T16:05:59.003Z,9.10
2023-01-12T16:08:25.729Z,9.20
2023-01-12T16:11:11.575Z,9.20
2023-01-12T16:13:38.915Z,9.20
2023-01-12T16:16:06.865Z,9.20
2023-01-12T16:18:34.431Z,9.20
2023-01-12T16:21:02.185Z,9.20
2023-01-12T16:23:31.495Z,9.20
2023-01-12T16:26:00.367Z,9.20
2023-01-12T16:28:29.113Z,9.20
2023-01-12T16:30:56.736Z,9.20
2023-01-12T16:33:23.766Z,9.20
2023-01-12T16:35:54.744Z,9.20
2023-01-12T16:38:21.446Z,9.20
2023-01-12T16:40:50.518Z,9.10
2023-01-12T16:43:20.921Z,9.10
2023-01-12T16:45:47.850Z,9.10
2023-01-12T16:48:14.593Z,9.10
2023-01-12T16:50:42.841Z,9.10
2023-01-12T16:53:12.076Z,9.20
2023-01-12T16:55:39.235Z,9.20
2023-01-12T16:58:06.581Z,9.20
2023-01-12T17:00:35.602Z,9.20
2023-01-12T17:03:03.263Z,9.10
2023-01-12T17:05:31.359Z,9.20
2023-01-12T17:07:58.205Z,9.10
2023-01-12T17:10:25.022Z,9.10
2023-01-12T17:12:57.892Z,9.10
2023-01-12T17:15:27.998Z,9.10
2023-01-12T17:17:56.208Z,9.00
2023-01-12T17:20:23.165Z,9.00
2023-01-12T17:22:50.753Z,9.00
2023-01-12T17:25:17.775Z,8.90
2023-01-12T17:27:44.718Z,8.80
2023-01-12T17:30:11.919Z,8.70
2023-01-12T17:32:39.353Z,8.70
2023-01-12T17:35:09.249Z,8.60
2023-01-12T17:37:36.332Z,8.50
2023-01-12T17:40:04.093Z,8.50
2023-01-12T17:43:07.749Z,8.50
2023-01-12T17:45:42.387Z,8.40
2023-01-12T17:48:11.890Z,8.40
2023-01-12T17:50:40.414Z,8.40
2023-01-12T17:53:09.267Z,8.30
2023-01-12T17:55:47.448Z,8.30
2023-01-12T17:58:18.294Z,8.30
2023-01-12T18:00:45.182Z,8.30
2023-01-12T18:03:11.955Z,8.30
2023-01-12T18:05:39.561Z,8.30
2023-01-12T18:08:06.435Z,8.30
2023-01-12T18:10:33.200Z,8.30
2023-01-12T18:12:59.908Z,8.30
2023-01-12T18:15:28.728Z,8.30
2023-01-12T18:17:55.500Z,8.30
2023-01-12T18:20:22.445Z,8.30
2023-01-12T18:22:49.924Z,8.30
2023-01-12T18:25:16.674Z,8.30
2023-01-12T18:27:45.375Z,8.30
2023-01-12T18:30:12.595Z,8.30
2023-01-12T18:32:39.627Z,8.30
2023-01-12T18:35:06.742Z,8.30
2023-01-12T18:37:33.442Z,8.30
2023-01-12T18:40:00.159Z,8.30
2023-01-12T18:42:45.254Z,8.30
2023-01-12T18:45:11.985Z,8.30
2023-01-12T18:47:56.998Z,8.30
2023-01-12T18:50:42.375Z,8.30
2023-01-12T18:53:30.248Z,8.30
2023-01-12T18:55:58.068Z,8.30
2023-01-12T18:58:28.672Z,8.30
2023-01-12T19:01:03.323Z,8.30
2023-01-12T19:03:30.343Z,8.30
2023-01-12T19:06:02.471Z,8.30
2023-01-12T19:08:48.774Z,8.40
2023-01-12T19:11:16.381Z,8.40
2023-01-12T19:14:01.744Z,8.40
2023-01-12T19:16:47.525Z,8.40
2023-01-12T19:19:14.398Z,8.40
2023-01-12T19:21:59.764Z,8.40
2023-01-12T19:24:45.131Z,8.40
2023-01-12T19:27:31.746Z,8.40
2023-01-12T19:29:58.751Z,8.40
2023-01-12T19:32:25.460Z,8.40
2023-01-12T19:34:56.520Z,8.40
2023-01-12T19:37:29.424Z,8.50
2023-01-12T19:40:01.412Z,8.50
2023-01-12T19:42:50.088Z,8.50
2023-01-12T19:45:17.592Z,8.60
2023-01-12T19:47:44.335Z,8.60
2023-01-12T19:50:13.583Z,8.70
2023-01-12T19:52:42.988Z,8.70
2023-01-12T19:55:13.967Z,8.70
2023-01-12T19:57:42.927Z,8.70
2023-01-12T20:00:15.068Z,8.70
2023-01-12T20:02:44.373Z,8.80
2023-01-12T20:05:13.637Z,8.80
2023-01-12T20:07:40.652Z,8.80
2023-01-12T20:10:08.848Z,8.80
2023-01-12T20:12:35.550Z,8.80
2023-01-12T20:15:03.360Z,8.80
2023-01-12T20:17:30.117Z,8.80
2023-01-12T20:19:56.852Z,8.80
2023-01-12T20:22:23.735Z,8.80
2023-01-12T20:24:50.489Z,8.80
2023-01-12T20:27:17.315Z,8.70
2023-01-12T20:29:44.075Z,8.80
2023-01-12T20:32:10.805Z,8.80
2023-01-12T20:34:37.559Z,8.80
2023-01-12T20:37:04.301Z,8.80
2023-01-12T20:39:31.057Z,8.80
2023-01-12T20:41:57.859Z,8.80
2023-01-12T20:44:24.706Z,9.20
2023-01-12T20:46:51.525Z,8.90
2023-01-12T20:49:18.334Z,8.90
2023-01-12T20:51:45.679Z,8.90
2023-01-12T20:54:12.419Z,8.90
2023-01-12T20:56:39.264Z,8.90
2023-01-12T20:59:06.267Z,8.90
2023-01-12T21:01:33.373Z,8.90
2023-01-12T21:04:00.716Z,8.90
2023-01-12T21:06:27.480Z,8.90
2023-01-12T21:08:54.211Z,8.90
2023-01-12T21:11:21.296Z,8.90
2023-01-12T21:13:48.233Z,9.00
2023-01-12T21:16:19.043Z,9.00
2023-01-12T21:18:46.710Z,8.90
2023-01-12T21:21:13.541Z,8.90
2023-01-12T21:23:40.370Z,8.90
2023-01-12T21:26:08.704Z,8.90
2023-01-12T21:28:38.924Z,8.90
2023-01-12T21:31:08.463Z,8.90
2023-01-12T21:33:35.727Z,8.90
2023-01-12T21:36:02.615Z,8.90
2023-01-12T21:38:29.713Z,8.90
2023-01-12T21:41:03.005Z,8.90
2023-01-12T21:43:30.064Z,8.90
2023-01-12T21:46:03.843Z,8.90
2023-01-12T21:48:31.100Z,8.90
2023-01-12T21:51:07.474Z,8.90
2023-01-12T21:53:35.122Z,8.90
2023-01-12T21:56:04.701Z,8.90
2023-01-12T21:58:35.163Z,8.90
2023-01-12T22:01:09.992Z,8.90
2023-01-12T22:03:37.659Z,8.90
2023-01-12T22:06:08.711Z,8.90
2023-01-12T22:08:38.030Z,8.90
2023-01-12T22:11:15.599Z,8.90
2023-01-12T22:13:46.327Z,8.90
2023-01-12T22:16:15.169Z,8.90
2023-01-12T22:18:50.090Z,8.90
2023-01-12T22:21:19.764Z,8.90
2023-01-12T22:23:47.138Z,8.90
2023-01-12T22:26:15.760Z,8.90
2023-01-12T22:28:45.278Z,8.90
2023-01-12T22:31:22.507Z,8.90
2023-01-12T22:33:56.598Z,8.90
2023-01-12T22:36:23.359Z,8.90
2023-01-12T22:38:50.427Z,8.90
2023-01-12T22:41:21.686Z,8.90
2023-01-12T22:43:49.399Z,8.90
2023-01-12T22:46:26.206Z,8.90
2023-01-12T22:48:56.537Z,8.90
2023-01-12T22:51:26.648Z,8.90
2023-01-12T22:53:55.414Z,8.90
2023-01-12T22:56:22.755Z,8.90
2023-01-12T22:58:55.440Z,8.90
2023-01-12T23:01:25.347Z,8.90
2023-01-12T23:03:57.039Z,8.90
2023-01-12T23:06:25.590Z,9.00
2023-01-12T23:08:52.734Z,8.90
2023-01-12T23:11:25.722Z,8.90
2023-01-12T23:13:57.076Z,9.00
2023-01-12T23:16:25.005Z,9.00
2023-01-12T23:18:51.860Z,9.00
2023-01-12T23:21:26.277Z,9.00
2023-01-12T23:23:59.063Z,9.00
2023-01-12T23:26:32.257Z,9.00
2023-01-12T23:29:02.646Z,9.00
2023-01-12T23:31:33.069Z,9.10
2023-01-12T23:33:59.877Z,9.10
2023-01-12T23:36:29.148Z,9.10
2023-01-12T23:39:00.588Z,9.10
2023-01-12T23:41:33.343Z,9.10
2023-01-12T23:44:02.780Z,9.10
2023-01-12T23:46:33.917Z,9.00
2023-01-12T23:49:01.186Z,9.00
2023-01-12T23:51:29.272Z,9.00
2023-01-12T23:53:59.762Z,9.00
2023-01-12T23:56:33.031Z,9.00
2023-01-12T23:59:00.027Z,9.00
